createdAt,value
2018-04-02T00:01:58.805Z,96822
2018-04-02T00:04:26.979Z,96831
2018-04-02T00:06:55.139Z,96831
2018-04-02T00:09:23.322Z,96843
2018-04-02T00:11:51.505Z,96846
2018-04-02T00:14:19.696Z,96840
2018-04-02T00:16:47.851Z,96838
2018-04-02T00:19:16.054Z,96842
2018-04-02T00:21:44.223Z,96844
2018-04-02T00:24:12.386Z,96840
2018-04-02T00:26:40.559Z,96848
2018-04-02T00:29:08.738Z,96860
2018-04-02T00:31:36.914Z,96863
2018-04-02T00:34:05.120Z,96865
2018-04-02T00:36:33.302Z,96871
2018-04-02T00:39:01.465Z,96876
2018-04-02T00:41:30.423Z,96875
2018-04-02T00:43:58.616Z,96875
2018-04-02T00:46:26.779Z,96889
2018-04-02T00:48:54.989Z,96889
2018-04-02T00:51:23.921Z,96894
2018-04-02T00:53:52.084Z,96895
2018-04-02T00:56:20.243Z,96906
2018-04-02T00:58:48.404Z,96917
2018-04-02T01:01:16.581Z,96929
2018-04-02T01:03:45.520Z,96938
2018-04-02T01:06:13.712Z,96933
2018-04-02T01:08:41.896Z,96927
2018-04-02T01:11:10.063Z,96925
2018-04-02T01:13:38.243Z,96931
2018-04-02T01:16:06.408Z,96923
2018-04-02T01:18:34.575Z,96927
2018-04-02T01:21:02.743Z,96929
2018-04-02T01:23:30.905Z,96935
2018-04-02T01:25:59.093Z,96937
2018-04-02T01:28:27.271Z,96931
2018-04-02T01:30:55.447Z,96932
2018-04-02T01:33:23.611Z,96928
2018-04-02T01:35:52.102Z,96928
2018-04-02T01:38:20.274Z,96931
2018-04-02T01:40:49.225Z,96932
2018-04-02T01:43:17.382Z,96926
2018-04-02T01:45:46.321Z,96933
2018-04-02T01:48:14.483Z,96932
2018-04-02T01:50:42.699Z,96940
2018-04-02T01:53:10.949Z,96947
2018-04-02T01:55:39.126Z,96950
2018-04-02T01:58:07.295Z,96953
2018-04-02T02:00:35.469Z,96957
2018-04-02T02:03:03.646Z,96966
2018-04-02T02:05:31.806Z,96965
2018-04-02T02:07:59.991Z,96966
2018-04-02T02:10:28.165Z,96964
2018-04-02T02:12:56.357Z,96963
2018-04-02T02:15:24.522Z,96967
2018-04-02T02:17:52.706Z,96969
2018-04-02T02:20:20.883Z,96966
2018-04-02T02:22:49.106Z,96970
2018-04-02T02:25:17.262Z,96963
2018-04-02T02:27:45.427Z,96968
2018-04-02T02:30:13.606Z,96973
2018-04-02T02:32:42.552Z,96969
2018-04-02T02:35:10.720Z,96968
2018-04-02T02:37:38.886Z,96974
2018-04-02T02:40:07.048Z,96995
2018-04-02T02:42:35.232Z,96981
2018-04-02T02:45:03.421Z,96979
2018-04-02T02:47:31.601Z,96990
2018-04-02T02:49:59.772Z,97002
2018-04-02T02:52:27.943Z,97000
2018-04-02T02:54:56.118Z,96997
2018-04-02T02:57:24.293Z,96989
2018-04-02T02:59:52.460Z,96989
2018-04-02T03:02:20.623Z,97000
2018-04-02T03:04:48.800Z,97004
2018-04-02T03:07:17.198Z,97004
2018-04-02T03:09:45.353Z,97001
2018-04-02T03:12:13.515Z,97003
2018-04-02T03:14:41.686Z,97009
2018-04-02T03:17:10.642Z,97016
2018-04-02T03:19:38.834Z,97018
2018-04-02T03:22:07.771Z,97018
2018-04-02T03:24:35.933Z,97012
2018-04-02T03:27:04.097Z,97013
2018-04-02T03:29:32.267Z,97026
2018-04-02T03:32:01.192Z,97017
2018-04-02T03:34:29.364Z,97029
2018-04-02T03:36:57.542Z,97035
2018-04-02T03:39:25.714Z,97039
2018-04-02T03:41:53.871Z,97031
2018-04-02T03:44:22.062Z,97023
2018-04-02T03:46:50.234Z,97031
2018-04-02T03:49:18.393Z,97031
2018-04-02T03:51:46.700Z,97035
2018-04-02T03:54:14.865Z,97043
2018-04-02T03:56:43.038Z,97043
2018-04-02T03:59:11.203Z,97045
2018-04-02T04:01:39.363Z,97048
2018-04-02T04:04:07.533Z,97054
2018-04-02T04:06:35.726Z,97063
2018-04-02T04:09:03.950Z,97058
2018-04-02T04:11:32.122Z,97058
2018-04-02T04:14:00.306Z,97065
2018-04-02T04:16:28.470Z,97067
2018-04-02T04:18:56.637Z,97071
2018-04-02T04:21:24.813Z,97064
2018-04-02T04:23:52.970Z,97067
2018-04-02T04:26:21.133Z,97064
2018-04-02T04:28:49.295Z,97065
2018-04-02T04:31:17.460Z,97074
2018-04-02T04:33:45.665Z,97075
2018-04-02T04:36:13.839Z,97079
2018-04-02T04:38:41.993Z,97085
2018-04-02T04:41:10.180Z,97089
2018-04-02T04:43:38.342Z,97096
2018-04-02T04:46:06.493Z,97097
2018-04-02T04:48:35.524Z,97101
2018-04-02T04:51:03.711Z,97104
2018-04-02T04:53:32.657Z,97107
2018-04-02T04:56:01.598Z,97117
2018-04-02T04:58:29.782Z,97130
2018-04-02T05:00:57.939Z,97136
2018-04-02T05:03:26.126Z,97138
2018-04-02T05:05:54.307Z,97138
2018-04-02T05:08:22.477Z,97143
2018-04-02T05:10:50.672Z,97145
2018-04-02T05:13:18.850Z,97147
2018-04-02T05:15:47.016Z,97159
2018-04-02T05:18:15.177Z,97167
2018-04-02T05:20:43.338Z,97180
2018-04-02T05:23:11.510Z,97181
2018-04-02T05:25:39.752Z,97179
2018-04-02T05:28:07.893Z,97180
2018-04-02T05:30:36.059Z,97181
2018-04-02T05:33:04.230Z,97186
2018-04-02T05:35:32.404Z,97180
2018-04-02T05:38:00.574Z,97189
2018-04-02T05:40:28.757Z,97189
2018-04-02T05:42:56.923Z,97193
2018-04-02T05:45:25.111Z,97198
2018-04-02T05:47:53.277Z,97198
2018-04-02T05:50:21.448Z,97204
2018-04-02T05:52:49.611Z,97208
2018-04-02T05:55:17.779Z,97205
2018-04-02T05:57:45.956Z,97204
2018-04-02T06:00:14.150Z,97198
2018-04-02T06:02:42.311Z,97198
2018-04-02T06:05:10.486Z,97198
2018-04-02T06:07:38.650Z,97203
2018-04-02T06:10:06.840Z,97205
2018-04-02T06:12:35.022Z,97208
2018-04-02T06:15:03.202Z,97205
2018-04-02T06:17:31.409Z,97216
2018-04-02T06:20:00.335Z,97214
2018-04-02T06:22:28.569Z,97219
2018-04-02T06:24:56.703Z,97224
2018-04-02T06:27:24.880Z,97225
2018-04-02T06:29:53.047Z,97229
2018-04-02T06:32:21.214Z,97223
2018-04-02T06:34:49.394Z,97224
2018-04-02T06:37:17.567Z,97223
2018-04-02T06:39:45.747Z,97227
2018-04-02T06:42:13.931Z,97238
2018-04-02T06:44:42.089Z,97237
2018-04-02T06:47:10.263Z,97236
2018-04-02T06:49:38.428Z,97235
2018-04-02T06:52:06.589Z,97239
2018-04-02T06:54:34.777Z,97242
2018-04-02T06:57:02.946Z,97244
2018-04-02T06:59:31.120Z,97250
2018-04-02T07:01:59.298Z,97251
2018-04-02T07:04:27.466Z,97253
2018-04-02T07:06:55.631Z,97257
2018-04-02T07:09:23.790Z,97257
2018-04-02T07:11:52.726Z,97263
2018-04-02T07:14:20.888Z,97258
2018-04-02T07:16:49.072Z,97265
2018-04-02T07:19:17.237Z,97266
2018-04-02T07:21:45.391Z,97269
2018-04-02T07:24:13.590Z,97267
2018-04-02T07:26:41.762Z,97271
2018-04-02T07:29:09.933Z,97276
2018-04-02T07:31:38.091Z,97285
2018-04-02T07:34:06.253Z,97272
2018-04-02T07:36:35.188Z,97277
2018-04-02T07:39:03.421Z,97274
2018-04-02T07:41:32.347Z,97269
2018-04-02T07:44:00.525Z,97272
2018-04-02T07:46:28.695Z,97272
2018-04-02T07:48:56.883Z,97278
2018-04-02T07:51:25.077Z,97268
2018-04-02T07:53:53.243Z,97267
2018-04-02T07:56:22.213Z,97269
2018-04-02T07:58:50.391Z,97268
2018-04-02T08:01:18.570Z,97279
2018-04-02T08:03:46.749Z,97281
2018-04-02T08:06:14.947Z,97285
2018-04-02T08:08:43.121Z,97279
2018-04-02T08:11:11.306Z,97287
2018-04-02T08:13:39.466Z,97290
2018-04-02T08:16:07.711Z,97288
2018-04-02T08:18:36.621Z,97284
2018-04-02T08:21:04.785Z,97283
2018-04-02T08:23:32.972Z,97287
2018-04-02T08:26:01.917Z,97288
2018-04-02T08:28:30.097Z,97286
2018-04-02T08:30:58.284Z,97283
2018-04-02T08:33:26.448Z,97283
2018-04-02T08:35:54.641Z,97284
2018-04-02T08:38:22.806Z,97287
2018-04-02T08:40:50.990Z,97290
2018-04-02T08:43:19.196Z,97285
2018-04-02T08:45:48.131Z,97286
2018-04-02T08:48:17.064Z,97285
2018-04-02T08:50:45.226Z,97272
2018-04-02T08:53:13.400Z,97273
2018-04-02T08:55:41.583Z,97274
2018-04-02T08:58:09.751Z,97275
2018-04-02T09:00:37.938Z,97273
2018-04-02T09:03:06.131Z,97276
2018-04-02T09:05:34.297Z,97269
2018-04-02T09:08:02.471Z,97269
2018-04-02T09:10:30.644Z,97265
2018-04-02T09:12:58.817Z,97261
2018-04-02T09:15:27.013Z,97261
2018-04-02T09:17:55.978Z,97256
2018-04-02T09:20:24.150Z,97256
2018-04-02T09:22:52.343Z,97241
2018-04-02T09:25:20.517Z,97252
2018-04-02T09:27:48.701Z,97247
2018-04-02T09:30:16.865Z,97248
2018-04-02T09:32:45.061Z,97238
2018-04-02T09:35:14.005Z,97235
2018-04-02T09:37:42.243Z,97235
2018-04-02T09:40:11.182Z,97234
2018-04-02T09:42:39.374Z,97232
2018-04-02T09:45:07.579Z,97229
2018-04-02T09:47:36.522Z,97225
2018-04-02T09:50:04.698Z,97226
2018-04-02T09:52:32.873Z,97223
2018-04-02T09:55:01.047Z,97223
2018-04-02T09:57:29.222Z,97225
2018-04-02T09:59:57.401Z,97223
2018-04-02T10:02:25.591Z,97213
2018-04-02T10:04:56.665Z,97227
2018-04-02T10:07:24.746Z,97231
2018-04-02T10:09:53.733Z,97222
2018-04-02T10:12:21.899Z,97225
2018-04-02T10:14:50.847Z,97218
2018-04-02T10:17:19.020Z,97220
2018-04-02T10:19:47.212Z,97215
2018-04-02T10:22:15.397Z,97214
2018-04-02T10:24:43.581Z,97213
2018-04-02T10:27:11.746Z,97211
2018-04-02T10:29:39.973Z,97199
2018-04-02T10:32:08.920Z,97201
2018-04-02T10:34:37.084Z,97197
2018-04-02T10:37:05.327Z,97188
2018-04-02T10:39:33.495Z,97187
2018-04-02T10:42:01.673Z,97176
2018-04-02T10:44:29.858Z,97181
2018-04-02T10:46:58.031Z,97169
2018-04-02T10:49:26.213Z,97179
2018-04-02T10:51:54.398Z,97171
2018-04-02T10:54:22.585Z,97177
2018-04-02T10:56:50.753Z,97167
2018-04-02T10:59:18.930Z,97167
2018-04-02T11:01:47.115Z,97160
2018-04-02T11:04:15.292Z,97157
2018-04-02T11:06:43.459Z,97164
2018-04-02T11:09:11.642Z,97154
2018-04-02T11:11:39.811Z,97158
2018-04-02T11:14:07.984Z,97157
2018-04-02T11:16:36.194Z,97153
2018-04-02T11:19:05.136Z,97157
2018-04-02T11:21:33.309Z,97149
2018-04-02T11:24:01.490Z,97144
2018-04-02T11:26:29.735Z,97146
2018-04-02T11:28:57.961Z,97147
2018-04-02T11:31:26.118Z,97139
2018-04-02T11:33:54.305Z,97137
2018-04-02T11:36:22.491Z,97135
2018-04-02T11:38:51.432Z,97131
2018-04-02T11:41:19.611Z,97128
2018-04-02T11:43:47.782Z,97126
2018-04-02T11:46:16.750Z,97125
2018-04-02T11:48:44.965Z,97132
2018-04-02T11:51:13.135Z,97120
2018-04-02T11:53:41.299Z,97125
2018-04-02T11:56:09.499Z,97128
2018-04-02T11:58:37.671Z,97112
2018-04-02T12:01:05.862Z,97117
2018-04-02T12:03:34.066Z,97108
2018-04-02T12:06:03.018Z,97103
2018-04-02T12:08:31.191Z,97096
2018-04-02T12:10:59.383Z,97101
2018-04-02T12:13:27.554Z,97097
2018-04-02T12:15:55.731Z,97091
2018-04-02T12:18:23.910Z,97100
2018-04-02T12:20:52.115Z,97099
2018-04-02T12:23:21.040Z,97098
2018-04-02T12:25:49.231Z,97098
2018-04-02T12:28:17.417Z,97088
2018-04-02T12:30:45.617Z,97089
2018-04-02T12:33:14.580Z,97093
2018-04-02T12:35:42.757Z,97089
2018-04-02T12:38:11.730Z,97082
2018-04-02T12:40:39.926Z,97086
2018-04-02T12:43:08.123Z,97076
2018-04-02T12:45:37.071Z,97079
2018-04-02T12:48:05.243Z,97081
2018-04-02T12:50:33.421Z,97069
2018-04-02T12:53:01.733Z,97067
2018-04-02T12:55:30.679Z,97061
2018-04-02T12:57:58.856Z,97058
2018-04-02T13:00:27.034Z,97057
2018-04-02T13:02:55.204Z,97063
2018-04-02T13:05:23.376Z,97047
2018-04-02T13:07:51.562Z,97050
2018-04-02T13:10:19.747Z,97053
2018-04-02T13:12:47.932Z,97047
2018-04-02T13:15:16.111Z,97047
2018-04-02T13:17:44.286Z,97052
2018-04-02T13:20:12.460Z,97042
2018-04-02T13:22:40.646Z,97039
2018-04-02T13:25:08.823Z,97036
2018-04-02T13:27:36.990Z,97041
2018-04-02T13:30:05.162Z,97034
2018-04-02T13:32:33.373Z,97031
2018-04-02T13:35:01.557Z,97038
2018-04-02T13:37:29.723Z,97039
2018-04-02T13:39:57.894Z,97034
2018-04-02T13:42:26.067Z,97026
2018-04-02T13:44:54.998Z,97030
2018-04-02T13:47:23.209Z,97029
2018-04-02T13:49:51.376Z,97026
2018-04-02T13:52:19.556Z,97028
2018-04-02T13:54:47.770Z,97019
2018-04-02T13:57:15.945Z,97012
2018-04-02T13:59:44.113Z,97015
2018-04-02T14:02:12.283Z,97015
2018-04-02T14:04:41.240Z,97009
2018-04-02T14:07:09.427Z,97009
2018-04-02T14:09:38.404Z,97002
2018-04-02T14:12:06.572Z,97002
2018-04-02T14:14:34.748Z,97006
2018-04-02T14:17:02.940Z,97006
2018-04-02T14:19:31.227Z,97006
2018-04-02T14:22:00.170Z,97002
2018-04-02T14:24:28.341Z,96995
2018-04-02T14:26:56.518Z,96990
2018-04-02T14:29:24.709Z,96990
2018-04-02T14:31:52.898Z,96988
2018-04-02T14:34:21.072Z,96984
2018-04-02T14:36:49.261Z,96983
2018-04-02T14:39:17.432Z,96981
2018-04-02T14:41:45.598Z,96982
2018-04-02T14:44:13.790Z,96977
2018-04-02T14:46:42.725Z,96973
2018-04-02T14:49:10.903Z,96969
2018-04-02T14:51:39.079Z,96968
2018-04-02T14:54:07.265Z,96969
2018-04-02T14:56:35.439Z,96973
2018-04-02T14:59:03.600Z,96973
2018-04-02T15:01:31.769Z,96976
2018-04-02T15:03:59.967Z,96959
2018-04-02T15:06:28.142Z,96962
2018-04-02T15:08:56.311Z,96949
2018-04-02T15:11:24.500Z,96955
2018-04-02T15:13:52.673Z,96954
2018-04-02T15:16:20.861Z,96953
2018-04-02T15:18:49.048Z,96948
2018-04-02T15:21:18.090Z,96946
2018-04-02T15:23:46.263Z,96941
2018-04-02T15:26:14.433Z,96943
2018-04-02T15:28:42.601Z,96942
2018-04-02T15:31:10.769Z,96940
2018-04-02T15:33:38.940Z,96939
2018-04-02T15:36:07.981Z,96938
2018-04-02T15:38:36.159Z,96936
2018-04-02T15:41:04.346Z,96934
2018-04-02T15:43:32.564Z,96926
2018-04-02T15:46:00.762Z,96925
2018-04-02T15:48:28.945Z,96926
2018-04-02T15:50:57.157Z,96920
2018-04-02T15:53:25.316Z,96922
2018-04-02T15:55:53.481Z,96926
2018-04-02T15:58:21.650Z,96920
2018-04-02T16:00:49.832Z,96918
2018-04-02T16:03:18.006Z,96920
2018-04-02T16:05:46.172Z,96924
2018-04-02T16:08:14.357Z,96922
2018-04-02T16:10:42.702Z,96920
2018-04-02T16:13:11.626Z,96925
2018-04-02T16:15:39.814Z,96916
2018-04-02T16:18:07.991Z,96921
2018-04-02T16:20:36.178Z,96919
2018-04-02T16:23:05.130Z,96916
2018-04-02T16:25:33.329Z,96917
2018-04-02T16:28:01.522Z,96913
2018-04-02T16:30:30.459Z,96915
2018-04-02T16:32:58.688Z,96907
2018-04-02T16:35:27.784Z,96911
2018-04-02T16:37:56.948Z,96914
2018-04-02T16:40:25.150Z,96915
2018-04-02T16:42:53.326Z,96913
2018-04-02T16:45:21.505Z,96903
2018-04-02T16:47:50.454Z,96907
2018-04-02T16:50:18.677Z,96911
2018-04-02T16:52:47.619Z,96908
2018-04-02T16:55:15.785Z,96913
2018-04-02T16:57:43.973Z,96918
2018-04-02T17:00:12.151Z,96906
2018-04-02T17:02:40.321Z,96908
2018-04-02T17:05:08.522Z,96906
2018-04-02T17:07:36.700Z,96902
2018-04-02T17:10:04.878Z,96905
2018-04-02T17:12:33.852Z,96903
2018-04-02T17:15:02.018Z,96911
2018-04-02T17:17:30.232Z,96909
2018-04-02T17:19:59.202Z,96910
2018-04-02T17:22:27.372Z,96908
2018-04-02T17:24:55.562Z,96908
2018-04-02T17:27:23.759Z,96913
2018-04-02T17:29:52.727Z,96915
2018-04-02T17:32:20.902Z,96914
2018-04-02T17:34:50.147Z,96918
2018-04-02T17:37:18.361Z,96914
2018-04-02T17:39:46.542Z,96914
2018-04-02T17:42:14.733Z,96922
2018-04-02T17:44:42.926Z,96925
2018-04-02T17:47:11.871Z,96923
2018-04-02T17:49:40.087Z,96926
2018-04-02T17:52:09.035Z,96928
2018-04-02T17:54:37.259Z,96930
2018-04-02T17:57:06.219Z,96931
2018-04-02T17:59:34.432Z,96932
2018-04-02T18:02:03.383Z,96938
2018-04-02T18:04:31.567Z,96942
2018-04-02T18:06:59.819Z,96941
2018-04-02T18:09:28.272Z,96943
2018-04-02T18:11:56.465Z,96946
2018-04-02T18:14:24.655Z,96947
2018-04-02T18:16:52.851Z,96946
2018-04-02T18:19:21.042Z,96951
2018-04-02T18:21:49.253Z,96951
2018-04-02T18:24:17.429Z,96953
2018-04-02T18:26:45.598Z,96958
2018-04-02T18:29:13.767Z,96960
2018-04-02T18:31:41.944Z,96967
2018-04-02T18:34:10.209Z,96967
2018-04-02T18:36:39.173Z,96963
2018-04-02T18:39:07.363Z,96968
2018-04-02T18:41:36.326Z,96965
2018-04-02T18:44:04.507Z,96962
2018-04-02T18:46:32.721Z,96957
2018-04-02T18:49:01.688Z,96965
2018-04-02T18:51:29.871Z,96963
2018-04-02T18:53:58.047Z,96968
2018-04-02T18:56:27.004Z,96970
2018-04-02T18:58:55.178Z,96968
2018-04-02T19:01:23.353Z,96966
2018-04-02T19:03:51.538Z,96970
2018-04-02T19:06:19.716Z,96968
2018-04-02T19:08:47.917Z,96969
2018-04-02T19:11:16.858Z,96971
2018-04-02T19:13:45.224Z,96976
2018-04-02T19:16:13.420Z,96979
2018-04-02T19:18:41.598Z,96973
2018-04-02T19:21:09.767Z,96985
2018-04-02T19:23:37.963Z,96984
2018-04-02T19:26:06.130Z,96980
2018-04-02T19:28:34.375Z,96987
2018-04-02T19:31:02.563Z,96991
2018-04-02T19:33:30.742Z,96989
2018-04-02T19:35:58.927Z,96993
2018-04-02T19:38:27.130Z,96991
2018-04-02T19:40:55.338Z,96993
2018-04-02T19:43:23.603Z,96996
2018-04-02T19:45:53.370Z,97003
2018-04-02T19:48:21.546Z,96996
2018-04-02T19:50:49.717Z,97006
2018-04-02T19:53:17.923Z,97001
2018-04-02T19:55:46.864Z,96997
2018-04-02T19:58:15.047Z,97005
2018-04-02T20:00:43.233Z,97010
2018-04-02T20:03:11.414Z,97009
2018-04-02T20:05:39.602Z,97004
2018-04-02T20:08:07.802Z,97003
2018-04-02T20:10:36.027Z,97006
2018-04-02T20:13:04.216Z,97004
2018-04-02T20:15:32.414Z,97003
2018-04-02T20:18:01.369Z,97013
2018-04-02T20:20:32.267Z,97013
2018-04-02T20:23:00.500Z,97002
2018-04-02T20:25:28.677Z,97007
2018-04-02T20:27:56.853Z,97008
2018-04-02T20:30:25.089Z,97008
2018-04-02T20:32:53.286Z,97003
2018-04-02T20:35:21.472Z,97007
2018-04-02T20:37:49.664Z,97005
2018-04-02T20:40:17.863Z,97004
2018-04-02T20:42:46.813Z,97006
2018-04-02T20:45:15.012Z,97007
2018-04-02T20:47:43.967Z,97009
2018-04-02T20:50:12.164Z,97014
2018-04-02T20:52:40.388Z,97005
2018-04-02T20:55:08.580Z,97011
2018-04-02T20:57:36.761Z,97008
2018-04-02T21:00:04.961Z,97008
2018-04-02T21:02:33.172Z,97004
2018-04-02T21:05:02.120Z,97013
2018-04-02T21:07:30.295Z,97013
2018-04-02T21:09:58.488Z,97009
2018-04-02T21:12:26.681Z,97008
2018-04-02T21:14:55.631Z,97003
2018-04-02T21:17:23.830Z,97001
2018-04-02T21:19:52.794Z,96999
2018-04-02T21:22:20.968Z,97008
2018-04-02T21:24:49.143Z,97001
2018-04-02T21:27:17.314Z,97000
2018-04-02T21:29:45.490Z,96998
2018-04-02T21:32:13.662Z,96991
2018-04-02T21:34:41.844Z,97003
2018-04-02T21:37:10.059Z,97001
2018-04-02T21:39:39.000Z,96994
2018-04-02T21:42:07.188Z,96999
2018-04-02T21:44:35.361Z,96990
2018-04-02T21:47:03.534Z,96988
2018-04-02T21:49:31.707Z,96988
2018-04-02T21:51:59.872Z,96991
2018-04-02T21:54:28.049Z,96989
2018-04-02T21:56:56.239Z,96988
2018-04-02T21:59:25.181Z,96988
2018-04-02T22:01:54.140Z,96990
2018-04-02T22:04:22.322Z,96987
2018-04-02T22:07:04.230Z,96980
2018-04-02T22:09:33.252Z,96976
2018-04-02T22:12:01.424Z,96982
2018-04-02T22:14:29.629Z,96983
2018-04-02T22:16:57.823Z,96978
2018-04-02T22:19:25.998Z,96977
2018-04-02T22:21:54.190Z,96981
2018-04-02T22:24:22.363Z,96977
2018-04-02T22:26:50.542Z,96985
2018-04-02T22:29:18.722Z,96976
2018-04-02T22:31:46.911Z,96979
2018-04-02T22:34:15.865Z,96980
2018-04-02T22:36:44.054Z,96978
2018-04-02T22:39:12.248Z,96977
2018-04-02T22:41:41.216Z,96972
2018-04-02T22:44:09.392Z,96976
2018-04-02T22:46:37.574Z,96971
2018-04-02T22:49:05.755Z,96968
2018-04-02T22:51:34.706Z,96965
2018-04-02T22:54:02.882Z,96960
2018-04-02T22:56:31.048Z,96954
2018-04-02T22:58:59.224Z,96950
2018-04-02T23:01:27.401Z,96954
2018-04-02T23:03:55.592Z,96964
2018-04-02T23:06:23.810Z,96964
2018-04-02T23:08:52.772Z,96958
2018-04-02T23:11:20.943Z,96953
2018-04-02T23:13:49.118Z,96949
2018-04-02T23:16:17.310Z,96952
2018-04-02T23:18:46.257Z,96954
2018-04-02T23:21:14.443Z,96944
2018-04-02T23:23:42.621Z,96948
2018-04-02T23:26:10.832Z,96952
2018-04-02T23:28:39.775Z,96946
2018-04-02T23:31:07.945Z,96945
2018-04-02T23:33:36.205Z,96949
2018-04-02T23:36:04.340Z,96958
2018-04-02T23:38:32.515Z,96958
2018-04-02T23:41:00.688Z,96953
2018-04-02T23:43:29.643Z,96954
2018-04-02T23:45:57.818Z,96934
2018-04-02T23:48:25.992Z,96934
2018-04-02T23:50:54.297Z,96934
2018-04-02T23:53:22.481Z,96938
2018-04-02T23:55:50.663Z,96937
2018-04-02T23:58:19.613Z,96941
